Time;durP1;ratioP1;P1;durP2;ratioP2;P2;SDS_P1;SDS_P2;PMS_P1;PMS_P2;Temp;Humidity;BMP_temperature;BMP_pressure;BME280_temperature;BME280_humidity;BME280_pressure;Samples;Min_cycle;Max_cycle;Signal;HPM_P1;HPM_P2
2023/06/27 00:00:12;;;;;;;5.90;2.20;;;15.60;99.90;;;;;;5032790;28;20030;-61
2023/06/27 00:02:38;;;;;;;5.55;2.35;;;15.60;99.90;;;;;;5004159;28;20073;-61
2023/06/27 00:05:05;;;;;;;9.10;2.30;;;15.60;99.90;;;;;;5014429;28;20476;-62
2023/06/27 00:07:31;;;;;;;5.65;2.20;;;15.60;99.90;;;;;;5015985;28;20041;-61
2023/06/27 00:09:56;;;;;;;6.63;2.20;;;15.50;99.90;;;;;;5035949;28;20045;-61
2023/06/27 00:12:22;;;;;;;4.60;1.90;;;15.50;99.90;;;;;;5032961;28;20041;-62
2023/06/27 00:14:48;;;;;;;6.25;2.40;;;15.40;99.90;;;;;;5022338;28;20045;-61
2023/06/27 00:17:16;;;;;;;5.70;2.70;;;15.40;99.90;;;;;;5033269;28;20064;-62
2023/06/27 00:19:47;;;;;;;3.72;2.38;;;15.40;99.90;;;;;;5032614;28;20052;-61
2023/06/27 00:22:12;;;;;;;4.22;2.47;;;15.40;99.90;;;;;;5015987;28;20049;-61
2023/06/27 00:24:39;;;;;;;5.15;2.05;;;15.40;99.90;;;;;;5033502;28;20056;-62
2023/06/27 00:27:05;;;;;;;5.93;2.20;;;15.30;99.90;;;;;;5039371;28;20041;-61
2023/06/27 00:29:32;;;;;;;5.28;2.58;;;15.30;99.90;;;;;;5025451;28;20111;-61
2023/06/27 00:31:58;;;;;;;4.22;2.42;;;15.30;99.90;;;;;;5028827;28;20049;-62
2023/06/27 00:34:23;;;;;;;4.85;2.42;;;15.30;99.90;;;;;;5031545;28;20190;-62
2023/06/27 00:36:49;;;;;;;4.28;2.40;;;15.30;99.90;;;;;;5032858;28;20037;-61
2023/06/27 00:39:15;;;;;;;6.28;2.75;;;15.30;99.90;;;;;;5028680;28;20033;-62
2023/06/27 00:41:42;;;;;;;3.97;2.50;;;15.20;99.90;;;;;;5026539;28;20112;-61
2023/06/27 00:44:08;;;;;;;3.08;1.92;;;15.20;99.90;;;;;;5023430;28;20471;-62
2023/06/27 00:46:38;;;;;;;3.47;2.38;;;15.20;99.90;;;;;;5032861;28;20073;-61
2023/06/27 00:49:09;;;;;;;4.80;2.27;;;15.20;99.90;;;;;;5031406;28;20052;-61
2023/06/27 00:51:35;;;;;;;5.10;2.33;;;15.20;99.90;;;;;;5028474;28;20292;-62
2023/06/27 00:54:01;;;;;;;4.22;2.22;;;15.20;99.90;;;;;;5025423;28;20073;-61
2023/06/27 00:56:27;;;;;;;5.93;2.35;;;15.20;99.90;;;;;;5026949;28;20076;-62
2023/06/27 00:59:02;;;;;;;3.78;2.45;;;15.10;99.90;;;;;;5014615;28;20084;-61
2023/06/27 01:01:31;;;;;;;6.20;2.88;;;15.10;99.90;;;;;;5014529;28;20088;-62
2023/06/27 01:03:58;;;;;;;4.55;2.45;;;15.10;99.90;;;;;;5032123;28;20046;-61
2023/06/27 01:06:44;;;;;;;5.53;2.72;;;15.10;99.90;;;;;;5032263;28;20034;-62
2023/06/27 01:09:26;;;;;;;5.80;2.45;;;15.10;99.90;;;;;;5032311;28;20033;-61
2023/06/27 01:12:19;;;;;;;5.65;2.47;;;15.10;99.90;;;;;;5032643;28;20049;-61
2023/06/27 01:14:46;;;;;;;3.55;2.35;;;15.10;99.90;;;;;;5031501;28;20050;-62
2023/06/27 01:17:14;;;;;;;5.45;2.80;;;15.00;99.90;;;;;;5028071;28;20041;-61
2023/06/27 01:19:44;;;;;;;5.43;2.67;;;15.00;99.90;;;;;;5028215;28;20021;-61
2023/06/27 01:22:15;;;;;;;4.50;2.42;;;15.00;99.90;;;;;;5031925;28;20494;-61
2023/06/27 01:24:40;;;;;;;;;;;14.90;99.90;;;;;;5032896;28;20033;-62
2023/06/27 01:27:06;;;;;;;4.55;2.78;;;14.90;99.90;;;;;;5030191;28;19917;-61
2023/06/27 01:29:32;;;;;;;5.55;2.42;;;14.80;99.90;;;;;;5030015;28;20043;-61
2023/06/27 01:32:07;;;;;;;6.22;2.70;;;14.80;99.90;;;;;;5030351;28;20099;-62
2023/06/27 01:34:44;;;;;;;5.22;2.58;;;14.80;99.90;;;;;;5026332;28;20049;-61
2023/06/27 01:37:29;;;;;;;5.95;2.65;;;14.80;99.90;;;;;;5031409;28;20052;-62
2023/06/27 01:40:02;;;;;;;6.90;2.95;;;14.80;99.90;;;;;;5031527;28;20033;-61
2023/06/27 01:42:33;;;;;;;5.10;2.88;;;14.70;99.90;;;;;;5031536;28;20038;-62
2023/06/27 01:45:00;;;;;;;4.85;2.70;;;14.70;99.90;;;;;;5025809;28;20065;-62
2023/06/27 01:47:26;;;;;;;4.85;2.85;;;14.70;99.90;;;;;;5026680;28;20112;-62
2023/06/27 01:49:51;;;;;;;6.68;3.00;;;14.70;99.90;;;;;;5032062;28;20468;-62
2023/06/27 01:52:19;;;;;;;6.60;3.35;;;14.70;99.90;;;;;;5031644;28;20049;-61
2023/06/27 01:54:45;;;;;;;6.55;3.10;;;14.60;99.90;;;;;;5031672;28;20112;-61
2023/06/27 01:57:10;;;;;;;4.03;2.67;;;14.70;99.90;;;;;;5029032;28;20539;-62
2023/06/27 01:59:36;;;;;;;6.32;2.88;;;14.70;99.90;;;;;;5029268;28;20057;-61
2023/06/27 02:02:05;;;;;;;6.53;3.40;;;14.60;99.90;;;;;;5025321;28;20184;-61
2023/06/27 02:04:31;;;;;;;6.60;3.17;;;14.70;99.90;;;;;;5026224;28;20488;-62
2023/06/27 02:06:57;;;;;;;4.97;2.63;;;14.60;99.90;;;;;;5027008;28;20128;-61
2023/06/27 02:09:23;;;;;;;5.18;3.30;;;14.60;99.90;;;;;;5030630;28;20120;-61
2023/06/27 02:11:48;;;;;;;5.05;3.05;;;14.60;99.90;;;;;;5031768;28;20030;-61
2023/06/27 02:14:14;;;;;;;4.60;3.20;;;14.60;99.90;;;;;;5016333;28;20067;-61
2023/06/27 02:16:40;;;;;;;7.88;3.33;;;14.70;99.90;;;;;;5031006;28;20067;-61
2023/06/27 02:19:05;;;;;;;4.90;3.10;;;14.60;99.90;;;;;;5013152;28;20042;-61
2023/06/27 02:21:31;;;;;;;8.07;3.58;;;14.60;99.90;;;;;;5030260;28;20033;-61
2023/06/27 02:23:56;;;;;;;8.57;3.30;;;14.60;99.90;;;;;;5021980;28;20041;-61
2023/06/27 02:26:22;;;;;;;4.88;3.53;;;14.60;99.90;;;;;;5031496;28;20492;-61
2023/06/27 02:28:48;;;;;;;7.28;3.95;;;14.60;99.90;;;;;;5031445;28;20037;-61
2023/06/27 02:31:14;;;;;;;7.25;3.50;;;14.60;99.90;;;;;;5030874;28;20068;-61
2023/06/27 02:33:39;;;;;;;8.95;4.07;;;14.60;99.90;;;;;;5030750;28;20037;-61
2023/06/27 02:36:06;;;;;;;8.05;3.78;;;14.60;99.90;;;;;;5022599;28;20100;-62
2023/06/27 02:38:32;;;;;;;8.20;4.07;;;14.60;99.90;;;;;;5031352;28;20034;-62
2023/06/27 02:40:57;;;;;;;7.15;4.15;;;14.60;99.90;;;;;;5013887;28;20124;-61
2023/06/27 02:43:23;;;;;;;9.93;4.28;;;14.60;99.90;;;;;;5033127;28;20049;-61
2023/06/27 02:45:49;;;;;;;9.52;4.60;;;14.60;99.90;;;;;;5033935;28;20087;-61
2023/06/27 02:48:14;;;;;;;6.72;4.25;;;14.70;99.90;;;;;;5034563;28;20049;-61
2023/06/27 02:50:40;;;;;;;8.02;4.63;;;14.70;99.90;;;;;;5034393;28;20046;-61
2023/06/27 02:53:06;;;;;;;8.98;4.38;;;14.60;99.90;;;;;;5029612;28;20060;-61
2023/06/27 02:55:31;;;;;;;7.30;4.70;;;14.60;99.90;;;;;;5034378;28;20037;-61
2023/06/27 02:57:57;;;;;;;7.30;4.40;;;14.60;99.90;;;;;;5031612;28;20160;-61
2023/06/27 03:00:23;;;;;;;8.63;4.93;;;14.60;99.90;;;;;;5013658;28;20532;-61
2023/06/27 03:02:48;;;;;;;10.15;4.95;;;14.60;99.90;;;;;;5023754;28;20100;-60
2023/06/27 03:05:14;;;;;;;9.52;4.82;;;14.60;99.90;;;;;;5028323;28;20129;-61
2023/06/27 03:07:40;;;;;;;9.07;5.03;;;14.60;99.90;;;;;;5034435;28;20033;-61
2023/06/27 03:10:06;;;;;;;7.68;5.00;;;14.60;99.90;;;;;;5034941;28;20450;-61
2023/06/27 03:12:31;;;;;;;8.88;4.90;;;14.60;99.90;;;;;;5034296;28;20033;-61
2023/06/27 03:14:58;;;;;;;7.68;5.35;;;14.70;99.90;;;;;;5033674;28;20123;-61
2023/06/27 03:17:24;;;;;;;10.68;5.20;;;14.70;99.90;;;;;;5034612;28;20072;-61
2023/06/27 03:19:51;;;;;;;8.43;5.50;;;14.70;99.90;;;;;;5029879;28;20137;-61
2023/06/27 03:22:17;;;;;;;7.65;5.07;;;14.70;99.90;;;;;;5033438;28;20124;-61
2023/06/27 03:24:42;;;;;;;12.02;5.82;;;14.70;99.90;;;;;;5033880;28;20037;-61
2023/06/27 03:27:08;;;;;;;8.95;5.65;;;14.70;99.90;;;;;;5034424;28;20052;-61
2023/06/27 03:29:33;;;;;;;12.07;6.00;;;14.70;99.90;;;;;;5034573;28;20051;-61
2023/06/27 03:31:59;;;;;;;11.23;6.03;;;14.80;99.90;;;;;;5034009;28;20110;-61
2023/06/27 03:34:25;;;;;;;15.88;6.00;;;14.70;99.90;;;;;;5017651;28;20025;-61
2023/06/27 03:36:50;;;;;;;11.38;6.43;;;14.70;99.90;;;;;;5034990;28;20534;-61
2023/06/27 03:39:16;;;;;;;10.57;6.07;;;14.80;99.90;;;;;;5020949;28;20328;-61
2023/06/27 03:41:41;;;;;;;11.35;6.25;;;14.80;99.90;;;;;;5025324;28;20388;-61
2023/06/27 03:44:08;;;;;;;12.18;5.82;;;14.80;99.90;;;;;;5024954;28;20041;-61
2023/06/27 03:46:34;;;;;;;12.73;6.03;;;14.80;99.90;;;;;;5034032;28;20045;-62
2023/06/27 03:49:00;;;;;;;10.73;6.00;;;14.80;99.90;;;;;;5028515;28;20033;-62
2023/06/27 03:51:26;;;;;;;11.02;5.68;;;14.80;99.90;;;;;;5033262;28;20040;-62
2023/06/27 03:53:52;;;;;;;11.30;6.05;;;14.80;99.90;;;;;;5027532;28;20033;-61
2023/06/27 03:56:17;;;;;;;10.43;5.63;;;14.80;99.90;;;;;;5037369;28;20041;-61
2023/06/27 03:58:43;;;;;;;11.73;5.63;;;14.80;99.90;;;;;;5033901;28;20034;-61
2023/06/27 04:01:11;;;;;;;11.40;6.10;;;14.90;99.90;;;;;;5034633;28;20033;-61
2023/06/27 04:03:36;;;;;;;10.95;6.03;;;14.90;99.90;;;;;;5026463;28;20514;-61
2023/06/27 04:06:02;;;;;;;14.45;6.72;;;14.90;99.90;;;;;;5030887;28;20041;-62
2023/06/27 04:08:28;;;;;;;10.88;5.95;;;14.90;99.90;;;;;;5028835;28;20033;-61
2023/06/27 04:10:53;;;;;;;9.95;5.72;;;15.00;99.90;;;;;;5032622;28;20112;-62
2023/06/27 04:13:19;;;;;;;9.13;6.45;;;15.00;99.90;;;;;;5026901;28;20037;-62
2023/06/27 04:15:44;;;;;;;10.30;5.78;;;15.00;99.90;;;;;;5029454;28;20038;-61
2023/06/27 04:18:10;;;;;;;9.77;5.60;;;15.10;99.90;;;;;;5027771;28;20029;-62
2023/06/27 04:20:36;;;;;;;10.73;6.30;;;15.10;99.90;;;;;;5033399;28;20098;-61
2023/06/27 04:23:02;;;;;;;12.18;6.65;;;15.10;99.90;;;;;;5020105;28;20044;-61
2023/06/27 04:25:32;;;;;;;11.63;6.38;;;15.20;99.90;;;;;;5031686;28;20060;-62
2023/06/27 04:27:57;;;;;;;9.15;6.07;;;15.20;99.90;;;;;;5032521;28;20041;-61
2023/06/27 04:30:23;;;;;;;13.10;6.55;;;15.20;99.90;;;;;;5016491;28;20045;-62
2023/06/27 04:32:49;;;;;;;13.13;6.40;;;15.20;99.90;;;;;;5019807;28;20045;-62
2023/06/27 04:35:18;;;;;;;10.50;6.65;;;15.20;99.90;;;;;;5024048;28;20041;-61
2023/06/27 04:37:44;;;;;;;13.05;7.13;;;15.30;99.90;;;;;;5006585;28;20419;-61
2023/06/27 04:40:11;;;;;;;11.30;6.40;;;15.30;99.90;;;;;;5032200;28;20056;-61
2023/06/27 04:42:37;;;;;;;12.25;6.50;;;15.30;99.90;;;;;;5018139;28;20090;-61
2023/06/27 04:45:03;;;;;;;13.60;6.85;;;15.40;99.90;;;;;;5011448;28;20503;-66
2023/06/27 04:47:29;;;;;;;12.65;6.65;;;15.40;99.90;;;;;;4987477;28;20463;-66
2023/06/27 04:49:54;;;;;;;12.43;7.47;;;15.40;99.90;;;;;;5021286;28;20037;-66
2023/06/27 04:52:20;;;;;;;12.85;6.63;;;15.50;99.90;;;;;;5029694;28;20095;-66
2023/06/27 04:54:49;;;;;;;13.32;7.35;;;15.50;99.90;;;;;;5032588;28;21407;-65
2023/06/27 04:57:15;;;;;;;12.25;6.60;;;15.60;99.90;;;;;;5026001;28;20043;-65
2023/06/27 04:59:41;;;;;;;11.15;6.40;;;15.60;99.90;;;;;;5029590;28;20083;-65
2023/06/27 05:02:07;;;;;;;13.65;7.30;;;15.70;99.90;;;;;;5031905;28;20252;-66
2023/06/27 05:04:33;;;;;;;10.43;6.95;;;15.80;99.90;;;;;;5030060;28;20033;-66
2023/06/27 05:06:59;;;;;;;13.68;7.03;;;15.90;99.90;;;;;;5009526;28;20046;-66
2023/06/27 05:09:25;;;;;;;13.55;8.05;;;16.10;99.90;;;;;;5026344;28;20034;-66
2023/06/27 05:11:50;;;;;;;14.77;7.65;;;16.10;99.90;;;;;;5031507;28;20044;-66
2023/06/27 05:14:16;;;;;;;16.23;7.97;;;16.30;99.90;;;;;;5031714;28;20052;-65
2023/06/27 05:16:42;;;;;;;14.00;6.90;;;16.40;99.90;;;;;;5030451;28;20043;-65
2023/06/27 05:19:07;;;;;;;14.07;6.70;;;16.50;99.90;;;;;;5030763;28;20561;-66
2023/06/27 05:21:33;;;;;;;12.95;6.70;;;16.60;99.90;;;;;;5030241;28;20038;-66
2023/06/27 05:23:58;;;;;;;10.55;6.63;;;16.80;99.90;;;;;;5026499;28;20034;-66
2023/06/27 05:26:24;;;;;;;13.77;7.38;;;16.90;99.90;;;;;;5034422;28;20040;-66
2023/06/27 05:28:50;;;;;;;15.10;7.05;;;17.10;99.90;;;;;;5028219;28;20038;-67
2023/06/27 05:31:16;;;;;;;12.10;7.13;;;17.10;99.90;;;;;;5022682;28;20033;-66
2023/06/27 05:33:41;;;;;;;11.68;6.70;;;17.30;99.90;;;;;;5030687;28;20462;-67
2023/06/27 05:36:07;;;;;;;13.52;6.82;;;17.50;99.90;;;;;;5028907;28;20049;-66
2023/06/27 05:38:33;;;;;;;9.95;6.88;;;17.70;99.90;;;;;;5028184;28;20563;-66
2023/06/27 05:40:58;;;;;;;10.20;6.47;;;17.90;99.90;;;;;;5026997;28;20026;-66
2023/06/27 05:43:24;;;;;;;11.48;6.63;;;18.00;99.90;;;;;;5037080;28;20092;-66
2023/06/27 05:45:50;;;;;;;11.07;6.35;;;18.20;99.90;;;;;;5032571;28;20037;-67
2023/06/27 05:48:16;;;;;;;11.05;6.40;;;18.30;99.90;;;;;;5031747;28;20041;-67
2023/06/27 05:50:42;;;;;;;11.60;6.65;;;18.30;99.90;;;;;;5029945;28;20033;-67
2023/06/27 05:53:07;;;;;;;14.95;6.32;;;18.40;99.90;;;;;;5011003;28;20103;-67
2023/06/27 05:55:33;;;;;;;11.18;6.65;;;18.40;99.90;;;;;;5031683;28;20041;-66
2023/06/27 05:57:59;;;;;;;9.15;5.93;;;18.40;99.90;;;;;;5029591;28;20037;-67
2023/06/27 06:00:24;;;;;;;10.77;6.18;;;18.40;99.90;;;;;;5026787;28;20112;-67
2023/06/27 06:02:50;;;;;;;8.40;5.30;;;18.50;99.90;;;;;;5031717;28;20488;-67
2023/06/27 06:05:17;;;;;;;8.30;5.25;;;18.60;99.90;;;;;;5028000;28;20123;-67
2023/06/27 06:07:43;;;;;;;12.88;5.13;;;18.60;99.90;;;;;;5027837;28;20053;-67
2023/06/27 06:10:10;;;;;;;9.07;4.25;;;18.70;99.90;;;;;;5013006;28;20056;-67
2023/06/27 06:12:37;;;;;;;9.32;4.10;;;18.90;99.90;;;;;;5012863;28;20103;-67
2023/06/27 06:15:02;;;;;;;6.30;4.05;;;18.90;99.90;;;;;;5022816;28;20095;-66
2023/06/27 06:17:28;;;;;;;8.30;3.92;;;19.00;99.90;;;;;;5031616;28;20037;-66
2023/06/27 06:19:54;;;;;;;6.47;3.25;;;19.10;99.90;;;;;;5018433;28;20095;-66
2023/06/27 06:22:19;;;;;;;6.47;3.45;;;19.20;99.90;;;;;;5027536;28;20466;-67
2023/06/27 06:24:45;;;;;;;5.20;2.75;;;19.30;99.90;;;;;;5028864;28;20033;-66
2023/06/27 06:27:11;;;;;;;8.75;3.25;;;19.40;99.90;;;;;;5014828;28;20045;-66
2023/06/27 06:29:36;;;;;;;4.45;2.40;;;19.50;99.90;;;;;;5032181;28;20472;-65
2023/06/27 06:32:02;;;;;;;5.32;2.80;;;19.60;99.90;;;;;;5034681;28;20571;-66
2023/06/27 06:34:28;;;;;;;7.20;3.17;;;19.70;99.90;;;;;;5032395;28;20033;-65
2023/06/27 06:36:53;;;;;;;5.95;2.58;;;19.80;99.90;;;;;;5014956;28;20056;-66
2023/06/27 06:39:19;;;;;;;7.85;2.17;;;19.80;99.90;;;;;;5035281;28;20033;-65
2023/06/27 06:41:45;;;;;;;7.82;1.88;;;20.00;99.90;;;;;;5033977;28;20057;-65
2023/06/27 06:44:10;;;;;;;7.03;2.10;;;20.00;99.90;;;;;;5034057;28;20046;-65
2023/06/27 06:46:37;;;;;;;4.70;1.90;;;20.20;99.90;;;;;;5027764;28;20041;-65
2023/06/27 06:49:03;;;;;;;7.50;2.22;;;20.30;99.90;;;;;;5030512;28;20045;-65
2023/06/27 06:51:29;;;;;;;4.75;2.25;;;20.40;99.90;;;;;;5035084;28;20038;-66
2023/06/27 06:53:54;;;;;;;6.25;1.73;;;20.60;99.90;;;;;;5034421;28;20049;-65
2023/06/27 06:56:20;;;;;;;5.78;1.35;;;20.60;99.90;;;;;;5034647;28;20045;-65
2023/06/27 06:58:46;;;;;;;6.80;1.40;;;20.70;99.90;;;;;;5033902;28;20037;-66
2023/06/27 07:01:12;;;;;;;3.35;1.40;;;20.70;99.90;;;;;;5031102;28;20502;-66
2023/06/27 07:03:37;;;;;;;5.55;1.70;;;20.90;99.90;;;;;;5029881;28;20045;-66
2023/06/27 07:06:03;;;;;;;6.05;1.40;;;21.10;99.90;;;;;;5016794;28;20045;-65
2023/06/27 07:08:28;;;;;;;8.20;1.50;;;21.20;99.90;;;;;;5032616;28;20044;-66
2023/06/27 07:10:54;;;;;;;5.28;1.55;;;21.30;99.90;;;;;;5033666;28;20037;-66
2023/06/27 07:13:20;;;;;;;4.43;1.20;;;21.20;99.90;;;;;;5030979;28;20468;-66
2023/06/27 07:15:45;;;;;;;3.72;1.02;;;21.20;99.80;;;;;;5032885;28;20475;-66
2023/06/27 07:18:11;;;;;;;4.18;1.17;;;21.20;99.80;;;;;;5026780;28;20037;-66
2023/06/27 07:20:36;;;;;;;4.07;1.20;;;21.30;99.50;;;;;;5023794;28;20033;-66
2023/06/27 07:23:02;;;;;;;6.10;1.40;;;21.30;98.60;;;;;;5039774;28;20434;-66
2023/06/27 07:25:28;;;;;;;4.32;1.00;;;21.30;97.90;;;;;;5033911;28;20091;-66
2023/06/27 07:27:54;;;;;;;4.13;0.98;;;21.20;97.60;;;;;;5024493;28;20041;-66
2023/06/27 07:30:20;;;;;;;6.05;1.30;;;21.20;97.50;;;;;;5034192;28;20558;-66
2023/06/27 07:32:45;;;;;;;4.22;0.98;;;21.30;96.90;;;;;;5031707;28;20037;-66
2023/06/27 07:35:11;;;;;;;2.60;0.93;;;21.40;96.70;;;;;;5035000;28;20043;-66
2023/06/27 07:37:37;;;;;;;4.78;1.40;;;21.50;96.00;;;;;;5030149;28;20039;-66
2023/06/27 07:40:06;;;;;;;4.75;1.15;;;21.60;95.50;;;;;;5033850;28;20033;-66
2023/06/27 07:42:33;;;;;;;3.40;1.00;;;21.80;94.90;;;;;;5032316;28;20067;-66
2023/06/27 07:44:58;;;;;;;4.38;1.00;;;21.90;94.90;;;;;;5034020;28;20090;-65
2023/06/27 07:47:24;;;;;;;4.10;1.00;;;22.10;94.50;;;;;;5012948;28;20033;-66
2023/06/27 07:49:49;;;;;;;4.20;1.10;;;22.30;94.00;;;;;;5029480;28;20554;-66
2023/06/27 07:52:15;;;;;;;5.90;1.25;;;22.30;93.50;;;;;;5036844;28;20065;-66
2023/06/27 07:54:41;;;;;;;5.22;1.23;;;22.30;93.10;;;;;;5032946;28;20030;-66
2023/06/27 07:57:07;;;;;;;4.85;1.20;;;22.20;92.60;;;;;;5031363;28;20045;-66
2023/06/27 07:59:32;;;;;;;5.55;1.20;;;22.00;92.10;;;;;;5027927;28;20175;-66
2023/06/27 08:01:58;;;;;;;3.60;0.93;;;22.10;91.80;;;;;;5033593;28;20025;-66
2023/06/27 08:04:23;;;;;;;3.90;1.20;;;22.20;91.10;;;;;;5033422;28;20104;-67
2023/06/27 08:06:49;;;;;;;4.32;0.95;;;22.20;90.70;;;;;;5011094;28;20037;-67
2023/06/27 08:09:15;;;;;;;2.55;1.00;;;22.00;90.70;;;;;;5030977;28;20399;-68
2023/06/27 08:11:41;;;;;;;2.97;0.77;;;21.90;91.00;;;;;;5028471;28;20060;-69
2023/06/27 08:14:06;;;;;;;3.40;0.77;;;21.80;90.80;;;;;;5031371;28;20049;-66
2023/06/27 08:16:35;;;;;;;4.25;0.93;;;21.70;91.10;;;;;;5032021;28;20045;-66
2023/06/27 08:19:01;;;;;;;4.55;0.93;;;21.70;91.00;;;;;;5033376;28;20030;-66
2023/06/27 08:21:26;;;;;;;3.63;1.20;;;21.60;91.20;;;;;;5036366;28;20436;-66
2023/06/27 08:23:52;;;;;;;3.50;0.90;;;21.60;90.60;;;;;;5032641;28;20129;-66
2023/06/27 08:26:18;;;;;;;4.85;1.25;;;21.70;90.40;;;;;;5033173;28;20038;-66
2023/06/27 08:28:44;;;;;;;4.72;0.88;;;21.70;89.70;;;;;;5032431;28;20088;-66
2023/06/27 08:31:11;;;;;;;2.78;0.80;;;21.70;88.20;;;;;;5033067;28;20080;-66
2023/06/27 08:33:37;;;;;;;4.25;0.90;;;21.90;88.00;;;;;;5032642;28;20045;-66
2023/06/27 08:36:02;;;;;;;4.20;0.95;;;22.10;87.30;;;;;;5024642;28;20076;-66
2023/06/27 08:38:28;;;;;;;3.20;1.00;;;22.30;88.00;;;;;;5018109;28;20064;-66
2023/06/27 08:40:55;;;;;;;2.40;0.90;;;22.60;87.20;;;;;;5030879;28;20061;-66
2023/06/27 08:43:21;;;;;;;2.78;1.20;;;22.80;85.30;;;;;;5032674;28;20084;-66
2023/06/27 08:45:49;;;;;;;4.05;1.08;;;23.00;83.30;;;;;;5032030;28;20080;-67
2023/06/27 08:48:16;;;;;;;2.67;0.80;;;23.10;81.30;;;;;;5032737;28;20045;-66
2023/06/27 08:50:43;;;;;;;5.55;0.93;;;23.20;80.10;;;;;;5032878;28;20048;-66
2023/06/27 08:53:14;;;;;;;5.68;1.02;;;23.30;79.40;;;;;;5030288;28;20049;-66
2023/06/27 08:56:03;;;;;;;3.10;0.80;;;23.40;77.90;;;;;;5022805;28;20037;-66
2023/06/27 08:58:40;;;;;;;4.07;1.40;;;23.50;75.00;;;;;;5023436;28;20487;-67
2023/06/27 09:01:06;;;;;;;5.38;1.10;;;23.60;74.90;;;;;;5032610;28;20037;-66
2023/06/27 09:03:33;;;;;;;2.28;0.70;;;23.50;72.90;;;;;;5013130;28;20041;-66
2023/06/27 09:05:59;;;;;;;3.72;1.05;;;23.70;73.10;;;;;;5028056;28;20419;-66
2023/06/27 09:08:25;;;;;;;3.50;1.08;;;23.80;71.90;;;;;;5031257;28;20029;-66
2023/06/27 09:10:51;;;;;;;2.70;0.85;;;23.80;72.10;;;;;;5038777;28;20037;-66
2023/06/27 09:13:18;;;;;;;3.28;0.80;;;23.80;71.20;;;;;;5030903;28;20041;-67
2023/06/27 09:15:43;;;;;;;2.92;0.82;;;23.70;69.80;;;;;;5026814;28;20492;-66
2023/06/27 09:18:09;;;;;;;2.38;0.80;;;23.60;69.50;;;;;;5027836;28;20167;-66
2023/06/27 09:20:34;;;;;;;3.20;0.60;;;23.60;69.20;;;;;;5029396;28;20034;-66
2023/06/27 09:23:05;;;;;;;2.97;0.90;;;23.50;68.90;;;;;;5028422;28;20037;-66
2023/06/27 09:25:31;;;;;;;;;;;23.50;69.40;;;;;;5032588;28;20037;-66
2023/06/27 09:27:58;;;;;;;4.28;0.90;;;23.40;68.80;;;;;;5034330;28;19917;-67
2023/06/27 09:30:24;;;;;;;2.50;0.70;;;23.40;69.30;;;;;;5031053;28;20041;-67
2023/06/27 09:32:58;;;;;;;5.00;0.90;;;23.40;68.90;;;;;;5011343;28;20449;-67
2023/06/27 09:35:25;;;;;;;2.88;0.60;;;23.40;68.80;;;;;;5010709;28;20095;-67
2023/06/27 09:37:52;;;;;;;5.47;1.00;;;23.40;69.40;;;;;;5012748;28;20046;-67
2023/06/27 09:40:24;;;;;;;3.38;0.60;;;23.40;69.10;;;;;;5030304;28;20041;-67
2023/06/27 09:42:55;;;;;;;2.25;0.70;;;23.50;69.10;;;;;;5027916;28;20472;-67
2023/06/27 09:45:21;;;;;;;;;;;23.60;68.40;;;;;;5026131;28;20494;-67
2023/06/27 09:47:51;;;;;;;2.58;0.80;;;23.60;68.10;;;;;;5026195;28;19925;-67
2023/06/27 09:50:23;;;;;;;4.13;0.70;;;23.60;68.40;;;;;;5031100;28;20044;-67
2023/06/27 09:52:59;;;;;;;2.33;0.75;;;23.60;67.70;;;;;;5029412;28;20033;-67
2023/06/27 09:55:25;;;;;;;4.15;0.77;;;23.70;67.90;;;;;;5028149;28;20069;-67
2023/06/27 09:57:51;;;;;;;3.30;0.88;;;23.80;68.80;;;;;;5012173;28;20392;-67
2023/06/27 10:00:21;;;;;;;3.75;0.82;;;23.80;68.40;;;;;;5028369;28;20033;-67
2023/06/27 10:02:47;;;;;;;;;;;23.80;67.10;;;;;;5029651;28;20061;-67
2023/06/27 10:05:13;;;;;;;2.65;0.80;;;23.80;68.20;;;;;;5028142;28;19956;-67
2023/06/27 10:07:39;;;;;;;4.18;0.95;;;23.80;67.80;;;;;;5021508;28;20071;-67
2023/06/27 10:10:06;;;;;;;4.13;0.90;;;23.80;66.80;;;;;;5028011;28;20037;-67
2023/06/27 10:12:33;;;;;;;3.33;0.65;;;23.70;67.20;;;;;;5008537;28;20069;-68
2023/06/27 10:14:59;;;;;;;2.88;1.35;;;23.60;67.50;;;;;;5031079;28;20115;-67
2023/06/27 10:17:28;;;;;;;2.17;0.80;;;23.60;68.00;;;;;;5027179;28;20052;-66
2023/06/27 10:19:53;;;;;;;4.53;1.05;;;23.70;68.20;;;;;;5026967;28;20038;-66
2023/06/27 10:22:21;;;;;;;3.58;1.00;;;23.70;67.80;;;;;;5031943;28;20034;-66
2023/06/27 10:24:51;;;;;;;2.70;0.80;;;23.80;68.20;;;;;;5027952;28;20033;-66
2023/06/27 10:27:20;;;;;;;3.30;0.73;;;23.90;68.40;;;;;;5022285;28;20065;-66
2023/06/27 10:29:46;;;;;;;4.30;0.85;;;24.00;68.00;;;;;;5013476;28;20038;-69
2023/06/27 10:32:16;;;;;;;2.35;0.65;;;24.00;67.90;;;;;;5059108;22;20033;-67
2023/06/27 10:34:42;;;;;;;1.40;0.82;;;24.10;67.50;;;;;;5037603;28;20030;-67
2023/06/27 10:37:26;;;;;;;2.55;0.90;;;24.10;67.20;;;;;;5041115;28;20037;-67
2023/06/27 10:40:06;;;;;;;5.03;1.10;;;24.20;67.90;;;;;;5031554;28;20040;-67
2023/06/27 10:42:32;;;;;;;1.33;0.73;;;24.20;67.40;;;;;;5030077;28;20514;-67
2023/06/27 10:45:04;;;;;;;3.42;0.80;;;24.20;66.70;;;;;;5004726;28;20034;-67
2023/06/27 10:47:41;;;;;;;2.80;0.80;;;24.20;67.00;;;;;;5026821;28;20037;-67
2023/06/27 10:50:21;;;;;;;2.53;0.60;;;24.20;66.50;;;;;;5030844;28;20536;-67
2023/06/27 10:53:03;;;;;;;5.28;1.05;;;24.20;66.10;;;;;;5031242;28;20133;-67
2023/06/27 10:55:31;;;;;;;6.75;0.90;;;24.30;67.10;;;;;;5020437;28;20041;-67
2023/06/27 10:58:10;;;;;;;4.57;0.90;;;24.40;66.80;;;;;;5027424;28;20048;-67
2023/06/27 11:00:40;;;;;;;3.40;0.82;;;24.60;65.90;;;;;;5027084;28;20040;-67
2023/06/27 11:03:08;;;;;;;3.28;0.88;;;24.60;65.40;;;;;;5020421;28;20041;-67
2023/06/27 11:05:57;;;;;;;4.28;0.73;;;24.80;65.80;;;;;;5032698;28;20041;-67
2023/06/27 11:08:29;;;;;;;2.58;0.82;;;24.90;66.90;;;;;;5029200;28;20500;-67
2023/06/27 11:11:06;;;;;;;2.42;0.80;;;25.00;65.80;;;;;;5021519;28;20380;-67
2023/06/27 11:13:45;;;;;;;3.42;1.00;;;25.00;64.60;;;;;;5018992;28;20038;-67
2023/06/27 11:16:12;;;;;;;2.25;0.80;;;25.00;63.30;;;;;;5023526;28;20044;-67
2023/06/27 11:18:38;;;;;;;2.22;0.80;;;24.90;63.00;;;;;;5032914;28;20033;-67
2023/06/27 11:21:04;;;;;;;2.22;0.75;;;24.80;63.70;;;;;;5015079;28;20072;-67
2023/06/27 11:23:30;;;;;;;5.00;0.90;;;24.60;64.40;;;;;;5000397;28;20037;-66
2023/06/27 11:25:56;;;;;;;4.63;0.90;;;24.50;65.00;;;;;;5015964;28;20107;-67
2023/06/27 11:28:22;;;;;;;2.20;0.85;;;24.60;65.80;;;;;;5032659;28;20053;-67
2023/06/27 11:30:48;;;;;;;3.88;0.70;;;24.60;65.20;;;;;;5017900;28;20052;-67
2023/06/27 11:33:21;;;;;;;1.98;0.80;;;24.70;64.70;;;;;;5022883;28;20037;-67
2023/06/27 11:35:47;;;;;;;3.08;0.93;;;24.80;63.20;;;;;;5025337;28;20057;-67
2023/06/27 11:38:13;;;;;;;2.28;0.75;;;24.60;63.00;;;;;;5024180;28;20056;-68
2023/06/27 11:40:51;;;;;;;3.13;0.77;;;24.50;63.30;;;;;;5022169;28;20037;-67
2023/06/27 11:43:21;;;;;;;1.55;0.73;;;24.40;63.90;;;;;;5027137;28;20046;-67
2023/06/27 11:45:48;;;;;;;3.80;0.75;;;24.20;64.40;;;;;;5026615;28;20045;-67
2023/06/27 11:48:14;;;;;;;4.55;1.00;;;24.20;65.20;;;;;;5025715;28;20120;-67
2023/06/27 11:50:58;;;;;;;3.55;0.73;;;24.20;65.90;;;;;;5030618;28;20590;-67
2023/06/27 11:53:50;;;;;;;4.38;0.70;;;24.10;65.90;;;;;;5009044;28;20033;-67
2023/06/27 11:56:17;;;;;;;4.68;0.98;;;23.90;66.90;;;;;;5027477;28;20069;-67
2023/06/27 11:58:45;;;;;;;3.50;0.82;;;23.70;66.60;;;;;;5028396;28;20119;-67
2023/06/27 12:01:13;;;;;;;3.55;0.90;;;23.60;66.70;;;;;;5005938;28;20029;-67
2023/06/27 12:03:39;;;;;;;2.63;0.95;;;23.40;67.40;;;;;;5010941;28;20041;-67
2023/06/27 12:06:05;;;;;;;7.30;0.95;;;23.30;67.80;;;;;;5025343;28;20034;-67
2023/06/27 12:08:31;;;;;;;3.38;0.90;;;23.30;68.50;;;;;;5025678;28;20087;-67
2023/06/27 12:11:00;;;;;;;4.50;1.40;;;23.30;68.60;;;;;;5015853;28;20053;-67
2023/06/27 12:13:39;;;;;;;6.00;1.10;;;23.30;68.60;;;;;;5015713;28;20507;-67
2023/06/27 12:16:05;;;;;;;2.80;0.77;;;23.30;68.50;;;;;;5021170;28;20046;-67
2023/06/27 12:18:31;;;;;;;3.00;0.90;;;23.30;69.10;;;;;;5020262;28;20043;-68
2023/06/27 12:20:58;;;;;;;5.45;0.98;;;23.30;69.90;;;;;;5020334;28;20037;-68
2023/06/27 12:23:27;;;;;;;4.57;1.05;;;23.30;69.70;;;;;;5002181;28;20048;-69
2023/06/27 12:25:53;;;;;;;3.13;0.80;;;23.30;69.60;;;;;;5021268;28;20405;-69
2023/06/27 12:28:18;;;;;;;3.15;0.90;;;23.30;69.70;;;;;;5018092;28;20037;-69
2023/06/27 12:30:44;;;;;;;4.57;0.90;;;23.30;69.80;;;;;;5021543;28;20040;-68
2023/06/27 12:33:11;;;;;;;4.15;0.98;;;23.30;70.40;;;;;;5026066;28;20374;-68
2023/06/27 12:35:37;;;;;;;3.72;0.93;;;23.40;70.30;;;;;;5030985;28;20288;-69
2023/06/27 12:38:03;;;;;;;3.90;0.73;;;23.40;69.60;;;;;;5025913;28;20518;-69
2023/06/27 12:40:28;;;;;;;3.40;0.77;;;23.40;68.60;;;;;;5024433;28;20026;-69
2023/06/27 12:42:54;;;;;;;3.10;0.70;;;23.40;68.00;;;;;;5028471;28;20462;-69
2023/06/27 12:45:21;;;;;;;4.45;0.90;;;23.50;68.60;;;;;;5030978;28;20037;-69